Terminal Aerodrome Forecast
Issued by NWS Austin/San Antonio, TX

Home | Current Version | Previous Version | Text Only | Print | Product List | Glossary On
Versions: 1 2 3 4 5 6 7 8 9 10 11 12 13 14 15 16 17 18 19 20 21 22 23 24 25 26 27 28 29 30 31
000
FTUS44 KEWX 231740
TAFSAT
TAF
KSAT 231740Z 2318/2424 15015KT P6SM VCTS BKN020 BKN040CB BKN250
     FM231900 16013KT P6SM VCTS BKN020CB OVC035
     FM232300 15013KT P6SM VCSH BKN030 BKN050
     FM240200 12006KT 3SM TSRA BR OVC015CB
     FM241000 14008KT 3SM -SHRA BR OVC006
     FM241500 18013KT P6SM BKN015
     FM241700 17013KT P6SM SCT040=

USA.gov is the U.S. government's official web portal to all federal, state and local government web resources and services.